Time;durP1;ratioP1;P1;durP2;ratioP2;P2;SDS_P1;SDS_P2;PMS_P1;PMS_P2;Temp;Humidity;BMP_temperature;BMP_pressure;BME280_temperature;BME280_humidity;BME280_pressure;Samples;Min_cycle;Max_cycle;Signal;HPM_P1;HPM_P2
2024/02/24 00:00:08;;;;;;;7.85;3.22;;;;;;;;;;4979616;29;20031;-83
2024/02/24 00:02:40;;;;;;;5.47;2.53;;;;;;;;;;4947849;29;20111;-83
2024/02/24 00:05:05;;;;;;;7.05;2.45;;;;;;;;;;4963341;28;20043;-83
2024/02/24 00:07:32;;;;;;;7.28;2.58;;;;;;;;;;4963652;29;20047;-83
2024/02/24 00:09:59;;;;;;;7.80;2.67;;;;;;;;;;4963787;28;20023;-83
2024/02/24 00:12:26;;;;;;;8.75;2.47;;;;;;;;;;4948151;29;20039;-81
2024/02/24 00:14:52;;;;;;;5.68;2.72;;;;;;;;;;4963141;29;20039;-82
2024/02/24 00:17:18;;;;;;;6.50;2.50;;;;;;;;;;4947812;29;20034;-82
2024/02/24 00:19:44;;;;;;;9.00;2.72;;;;;;;;;;4964397;29;20016;-82
2024/02/24 00:22:11;;;;;;;5.60;2.67;;;;;;;;;;4979922;28;20030;-82
2024/02/24 00:24:39;;;;;;;6.00;2.33;;;;;;;;;;4979835;28;20019;-83
2024/02/24 00:27:05;;;;;;;9.10;3.03;;;;;;;;;;4947454;29;20043;-81
2024/02/24 00:29:32;;;;;;;7.93;3.58;;;;;;;;;;4963072;29;20046;-83
2024/02/24 00:31:58;;;;;;;8.48;3.83;;;;;;;;;;4963218;28;20023;-82
2024/02/24 00:34:24;;;;;;;9.15;3.08;;;;;;;;;;4946522;29;20030;-82
2024/02/24 00:36:52;;;;;;;7.68;2.83;;;;;;;;;;4947081;29;20102;-82
2024/02/24 00:39:18;;;;;;;5.80;2.50;;;;;;;;;;4962290;29;20070;-82
2024/02/24 00:41:44;;;;;;;7.22;3.15;;;;;;;;;;4962676;29;20059;-83
2024/02/24 00:44:13;;;;;;;9.70;4.07;;;;;;;;;;4962955;29;20030;-82
2024/02/24 00:46:40;;;;;;;9.73;4.20;;;;;;;;;;4946770;28;20112;-82
2024/02/24 00:49:07;;;;;;;8.30;4.00;;;;;;;;;;4962300;29;20046;-82
2024/02/24 00:51:33;;;;;;;13.85;5.20;;;;;;;;;;4962534;29;20015;-83
2024/02/24 00:54:00;;;;;;;14.40;4.45;;;;;;;;;;4963134;28;20051;-81
2024/02/24 00:56:26;;;;;;;10.75;4.32;;;;;;;;;;4947643;29;20061;-83
2024/02/24 00:58:56;;;;;;;15.88;6.13;;;;;;;;;;4979545;29;20031;-83
2024/02/24 01:01:22;;;;;;;20.75;8.38;;;;;;;;;;4947738;29;20107;-83
2024/02/24 01:03:48;;;;;;;14.13;6.22;;;;;;;;;;4979643;28;20039;-84
2024/02/24 01:06:15;;;;;;;8.48;4.20;;;;;;;;;;4946742;29;20066;-82
2024/02/24 01:08:41;;;;;;;12.82;4.32;;;;;;;;;;4976914;29;20022;-82
2024/02/24 01:11:09;;;;;;;11.38;4.35;;;;;;;;;;4946824;29;20062;-82
2024/02/24 01:13:36;;;;;;;;;;;;;;;;;;4962748;28;20031;-82
2024/02/24 01:16:02;;;;;;;13.43;4.22;;;;;;;;;;4960733;29;19914;-83
2024/02/24 01:18:28;;;;;;;14.18;4.43;;;;;;;;;;4945697;29;20074;-83
2024/02/24 01:20:54;;;;;;;9.38;3.85;;;;;;;;;;4958545;29;20041;-81
2024/02/24 01:23:21;;;;;;;12.52;3.63;;;;;;;;;;4940540;29;20066;-82
2024/02/24 01:25:47;;;;;;;8.63;3.50;;;;;;;;;;4938637;29;20044;-82
2024/02/24 01:28:13;;;;;;;7.55;3.38;;;;;;;;;;4924125;29;20099;-82
2024/02/24 01:30:39;;;;;;;7.45;3.28;;;;;;;;;;4958182;29;20039;-82
2024/02/24 01:33:05;;;;;;;6.97;3.20;;;;;;;;;;4959686;29;20083;-80
2024/02/24 01:35:31;;;;;;;6.38;2.63;;;;;;;;;;4944716;29;20035;-82
2024/02/24 01:37:58;;;;;;;8.88;3.42;;;;;;;;;;4976926;29;20038;-82
2024/02/24 01:40:24;;;;;;;8.02;2.97;;;;;;;;;;4946276;29;20035;-81
2024/02/24 01:42:50;;;;;;;9.18;3.20;;;;;;;;;;4945990;29;20046;-82
2024/02/24 01:45:16;;;;;;;8.52;2.70;;;;;;;;;;4961606;29;20015;-82
2024/02/24 01:47:42;;;;;;;5.70;3.10;;;;;;;;;;4945944;29;20047;-83
2024/02/24 01:50:12;;;;;;;6.80;3.13;;;;;;;;;;4945081;29;20039;-83
2024/02/24 01:52:45;;;;;;;7.40;2.67;;;;;;;;;;4961982;29;20007;-83
2024/02/24 01:55:12;;;;;;;4.50;2.28;;;;;;;;;;4957464;29;20042;-83
2024/02/24 01:57:41;;;;;;;6.43;2.72;;;;;;;;;;4973924;29;20023;-82
2024/02/24 02:00:09;;;;;;;4.70;2.50;;;;;;;;;;4941672;29;20040;-83
2024/02/24 02:02:45;;;;;;;7.22;2.42;;;;;;;;;;4941595;29;20050;-82
2024/02/24 02:05:11;;;;;;;7.20;2.38;;;;;;;;;;4956904;29;20484;-83
2024/02/24 02:07:37;;;;;;;6.13;2.03;;;;;;;;;;4957895;29;20028;-81
2024/02/24 02:10:07;;;;;;;10.13;1.92;;;;;;;;;;4959209;29;20012;-83
2024/02/24 02:12:34;;;;;;;5.80;2.15;;;;;;;;;;4959160;28;20020;-82
2024/02/24 02:15:03;;;;;;;5.90;2.05;;;;;;;;;;4942975;29;20026;-83
2024/02/24 02:17:31;;;;;;;6.68;2.35;;;;;;;;;;4959295;28;20036;-83
2024/02/24 02:20:03;;;;;;;4.45;2.08;;;;;;;;;;4927634;29;20035;-82
2024/02/24 02:22:30;;;;;;;6.32;2.17;;;;;;;;;;4943905;29;20040;-81
2024/02/24 02:24:56;;;;;;;4.07;1.80;;;;;;;;;;4943746;29;20038;-82
2024/02/24 02:27:22;;;;;;;5.28;1.80;;;;;;;;;;4959542;28;20039;-81
2024/02/24 02:29:48;;;;;;;5.55;1.92;;;;;;;;;;4943273;29;20020;-83
2024/02/24 02:32:15;;;;;;;4.25;1.63;;;;;;;;;;4943014;29;20099;-83
2024/02/24 02:34:44;;;;;;;5.00;1.55;;;;;;;;;;4927097;29;20328;-83
2024/02/24 02:37:09;;;;;;;6.53;2.08;;;;;;;;;;4942542;29;20040;-80
2024/02/24 02:39:35;;;;;;;5.28;1.92;;;;;;;;;;4942881;29;20036;-82
2024/02/24 02:42:02;;;;;;;5.82;2.00;;;;;;;;;;4896462;29;20036;-83
2024/02/24 02:44:28;;;;;;;4.90;1.90;;;;;;;;;;4927125;29;20048;-82
2024/02/24 02:46:56;;;;;;;5.13;1.65;;;;;;;;;;4943601;29;20107;-81
2024/02/24 02:49:29;;;;;;;4.15;1.63;;;;;;;;;;4956015;29;20040;-82
2024/02/24 02:52:04;;;;;;;;;;;;;;;;;;4922006;29;20116;-82
2024/02/24 02:54:36;;;;;;;5.20;1.77;;;;;;;;;;4922902;29;19917;-82
2024/02/24 02:57:13;;;;;;;8.90;1.90;;;;;;;;;;4937253;29;20055;-82
2024/02/24 02:59:59;;;;;;;4.82;1.58;;;;;;;;;;4940153;29;20036;-81
2024/02/24 03:03:21;;;;;;;4.50;1.85;;;;;;;;;;4955860;29;20043;-81
2024/02/24 03:06:13;;;;;;;4.22;1.35;;;;;;;;;;4936625;29;20071;-80
2024/02/24 03:09:18;;;;;;;5.38;1.50;;;;;;;;;;4956322;29;20040;-82
2024/02/24 03:12:12;;;;;;;4.47;1.65;;;;;;;;;;4958038;29;20051;-82
2024/02/24 03:15:42;;;;;;;3.58;1.77;;;;;;;;;;4957852;29;20043;-82
2024/02/24 03:18:28;;;;;;;8.23;2.03;;;;;;;;;;4941844;29;20035;-81
2024/02/24 03:21:13;;;;;;;8.43;1.92;;;;;;;;;;4940051;29;20047;-82
2024/02/24 03:24:12;;;;;;;5.55;1.50;;;;;;;;;;4956476;29;20083;-81
2024/02/24 03:26:53;;;;;;;3.97;1.70;;;;;;;;;;4940897;29;20031;-82
2024/02/24 03:29:48;;;;;;;5.68;2.03;;;;;;;;;;4957740;29;20055;-81
2024/02/24 03:32:31;;;;;;;6.72;1.83;;;;;;;;;;4941690;29;20121;-81
2024/02/24 03:35:09;;;;;;;6.32;1.67;;;;;;;;;;4958659;29;20075;-82
2024/02/24 03:37:51;;;;;;;4.50;1.70;;;;;;;;;;4958040;29;20039;-83
2024/02/24 03:40:52;;;;;;;3.15;1.25;;;;;;;;;;4959742;29;20110;-82
2024/02/24 03:43:33;;;;;;;6.50;1.80;;;;;;;;;;4943634;29;20019;-82
2024/02/24 03:47:04;;;;;;;7.38;1.98;;;;;;;;;;4955954;29;20084;-81
2024/02/24 03:50:10;;;;;;;5.13;1.73;;;;;;;;;;4959475;29;20039;-82
2024/02/24 03:53:14;;;;;;;6.13;1.70;;;;;;;;;;4943790;29;20036;-82
2024/02/24 03:56:34;;;;;;;6.13;1.80;;;;;;;;;;4959445;29;20016;-82
2024/02/24 03:59:55;;;;;;;3.33;1.52;;;;;;;;;;4955162;29;20084;-82
2024/02/24 04:03:21;;;;;;;3.58;1.75;;;;;;;;;;4958867;29;20031;-82
2024/02/24 04:06:38;;;;;;;4.80;1.95;;;;;;;;;;4957552;29;20083;-81
2024/02/24 04:10:24;;;;;;;4.68;1.75;;;;;;;;;;4941079;29;20036;-82
2024/02/24 04:13:44;;;;;;;6.00;1.90;;;;;;;;;;4938216;29;20111;-81
2024/02/24 04:17:23;;;;;;;5.68;2.28;;;;;;;;;;4945726;29;20050;-82
2024/02/24 04:20:25;;;;;;;7.13;2.70;;;;;;;;;;4944178;29;20035;-82
2024/02/24 04:23:51;;;;;;;5.22;2.25;;;;;;;;;;4947846;29;20040;-82
2024/02/24 04:27:27;;;;;;;3.95;2.03;;;;;;;;;;4958229;29;20032;-82
2024/02/24 04:31:32;;;;;;;5.05;1.83;;;;;;;;;;4957418;29;20039;-82
2024/02/24 04:43:09;;;;;;;6.70;2.05;;;;;;;;;;4918294;29;20048;-82
2024/02/24 04:46:10;;;;;;;5.68;1.70;;;;;;;;;;4995860;23;20054;-82
2024/02/24 04:49:29;;;;;;;8.45;1.98;;;;;;;;;;4978590;28;20027;-82
2024/02/24 04:52:52;;;;;;;7.35;2.08;;;;;;;;;;4978627;28;20094;-83
2024/02/24 04:56:15;;;;;;;8.63;1.90;;;;;;;;;;4966726;29;20040;-82
2024/02/24 05:05:47;;;;;;;5.20;1.52;;;;;;;;;;5101088;23;20084;-82
2024/02/24 05:08:29;;;;;;;3.88;1.58;;;;;;;;;;4960666;28;20059;-82
2024/02/24 05:14:20;;;;;;;8.18;2.13;;;;;;;;;;4974815;28;20095;-82
2024/02/24 05:17:17;;;;;;;4.85;1.88;;;;;;;;;;4994896;28;20054;-82
2024/02/24 05:20:10;;;;;;;4.88;1.65;;;;;;;;;;4971313;28;20035;-82
2024/02/24 05:22:50;;;;;;;3.80;1.60;;;;;;;;;;4963843;28;20045;-82
2024/02/24 05:25:25;;;;;;;;;;;;;;;;;;4958837;29;20114;-82
2024/02/24 05:28:23;;;;;;;2.85;1.42;;;;;;;;;;4993700;28;19910;-81
2024/02/24 05:31:41;;;;;;;4.20;1.60;;;;;;;;;;4990011;28;20047;-82
2024/02/24 05:35:02;;;;;;;5.10;1.83;;;;;;;;;;5039281;23;20059;-82
2024/02/24 05:37:57;;;;;;;2.88;1.30;;;;;;;;;;4995561;28;20018;-82
2024/02/24 05:40:45;;;;;;;2.92;1.42;;;;;;;;;;4980786;28;20019;-82
2024/02/24 05:43:22;;;;;;;5.65;1.50;;;;;;;;;;4996100;28;20083;-82
2024/02/24 05:45:54;;;;;;;4.32;1.48;;;;;;;;;;4945351;29;20027;-83
2024/02/24 05:48:29;;;;;;;3.70;1.38;;;;;;;;;;4960261;29;20063;-83
2024/02/24 05:51:11;;;;;;;2.90;1.38;;;;;;;;;;4959574;29;20099;-82
2024/02/24 05:53:46;;;;;;;3.50;1.30;;;;;;;;;;4976148;28;20046;-83
2024/02/24 05:56:22;;;;;;;4.40;1.48;;;;;;;;;;4944849;29;20035;-82
2024/02/24 05:58:52;;;;;;;4.22;1.42;;;;;;;;;;4928492;29;20113;-83
2024/02/24 06:01:23;;;;;;;5.05;1.98;;;;;;;;;;4926677;29;20047;-81
2024/02/24 06:04:02;;;;;;;3.03;1.23;;;;;;;;;;4946010;29;20027;-82
2024/02/24 06:06:54;;;;;;;2.97;1.23;;;;;;;;;;4941099;29;20071;-82
2024/02/24 06:09:30;;;;;;;4.47;1.27;;;;;;;;;;4941535;29;20046;-81
2024/02/24 06:12:01;;;;;;;4.72;1.65;;;;;;;;;;4938420;29;20043;-81
2024/02/24 06:14:33;;;;;;;6.13;1.13;;;;;;;;;;4935910;29;20034;-82
2024/02/24 06:17:02;;;;;;;2.65;1.08;;;;;;;;;;4905616;29;20031;-81
2024/02/24 06:19:30;;;;;;;4.35;1.40;;;;;;;;;;4905943;29;20031;-82
2024/02/24 06:22:03;;;;;;;4.78;1.40;;;;;;;;;;4936706;29;20032;-80
2024/02/24 06:24:53;;;;;;;3.63;1.45;;;;;;;;;;4890049;29;20035;-83
2024/02/24 06:27:30;;;;;;;4.50;1.30;;;;;;;;;;4935978;29;20051;-81
2024/02/24 06:30:00;;;;;;;2.85;1.15;;;;;;;;;;4921434;29;20023;-81
2024/02/24 06:32:32;;;;;;;3.20;1.23;;;;;;;;;;4906813;29;20039;-82
2024/02/24 06:35:04;;;;;;;3.35;1.33;;;;;;;;;;4924550;29;20114;-82
2024/02/24 06:37:46;;;;;;;3.08;1.33;;;;;;;;;;4928263;29;20099;-81
2024/02/24 06:40:20;;;;;;;4.55;1.25;;;;;;;;;;4941436;29;20108;-82
2024/02/24 06:42:59;;;;;;;5.35;1.30;;;;;;;;;;4927195;29;20040;-81
2024/02/24 06:45:33;;;;;;;4.32;1.60;;;;;;;;;;4911116;29;20035;-80
2024/02/24 06:48:08;;;;;;;3.47;1.38;;;;;;;;;;4911002;29;20027;-80
2024/02/24 06:50:51;;;;;;;4.25;1.55;;;;;;;;;;4941426;29;20063;-80
2024/02/24 06:53:26;;;;;;;4.70;1.75;;;;;;;;;;4940378;29;20043;-80
2024/02/24 06:56:11;;;;;;;2.72;1.10;;;;;;;;;;4941396;29;20027;-81
2024/02/24 06:58:50;;;;;;;2.63;0.90;;;;;;;;;;4948909;29;20040;-81
2024/02/24 07:01:25;;;;;;;1.95;0.95;;;;;;;;;;4938661;29;20313;-82
2024/02/24 07:03:54;;;;;;;4.15;1.17;;;;;;;;;;4924486;29;20035;-82
2024/02/24 07:06:26;;;;;;;4.43;1.23;;;;;;;;;;4925046;29;20035;-82
2024/02/24 07:09:01;;;;;;;4.32;1.02;;;;;;;;;;4926790;29;20039;-82
2024/02/24 07:11:44;;;;;;;4.63;1.20;;;;;;;;;;4927856;29;20035;-82
2024/02/24 07:14:35;;;;;;;2.05;0.75;;;;;;;;;;4942386;29;20047;-82
2024/02/24 07:17:09;;;;;;;3.45;0.55;;;;;;;;;;4961033;29;20039;-82
2024/02/24 07:19:47;;;;;;;3.25;1.05;;;;;;;;;;4944446;29;20130;-82
2024/02/24 07:22:42;;;;;;;2.25;0.98;;;;;;;;;;4940259;29;20048;-81
2024/02/24 07:25:43;;;;;;;2.00;0.90;;;;;;;;;;4944715;29;20100;-82
2024/02/24 07:28:32;;;;;;;3.67;0.95;;;;;;;;;;4928384;29;20043;-81
2024/02/24 07:31:35;;;;;;;5.47;1.17;;;;;;;;;;4941169;29;20040;-81
2024/02/24 07:34:11;;;;;;;1.83;0.60;;;;;;;;;;4959255;29;20034;-82
2024/02/24 07:37:05;;;;;;;;;;;;;;;;;;;;;
2024/02/24 07:40:08;;;;;;;4.90;0.80;;;;;;;;;;4936079;29;20088;-81
2024/02/24 07:43:21;;;;;;;2.33;0.90;;;;;;;;;;4946673;29;20048;-81
2024/02/24 07:46:02;;;;;;;3.72;0.93;;;;;;;;;;4943749;29;20011;-81
2024/02/24 07:48:41;;;;;;;2.92;0.70;;;;;;;;;;4945331;29;20051;-82
2024/02/24 07:51:51;;;;;;;5.25;0.95;;;;;;;;;;4960151;29;20035;-82
2024/02/24 07:54:34;;;;;;;3.83;1.20;;;;;;;;;;4942344;29;20124;-81
2024/02/24 07:57:23;;;;;;;4.90;1.00;;;;;;;;;;4942933;29;20039;-82
2024/02/24 08:00:01;;;;;;;5.07;1.05;;;;;;;;;;4950147;29;20102;-82
2024/02/24 08:03:08;;;;;;;3.40;0.90;;;;;;;;;;4959472;29;20078;-82
2024/02/24 08:09:46;;;;;;;2.92;0.95;;;;;;;;;;4959263;29;20061;-81
2024/02/24 08:12:29;;;;;;;3.60;0.93;;;;;;;;;;4937456;29;20116;-82
2024/02/24 08:15:37;;;;;;;;;;;;;;;;;;;;;
2024/02/24 08:18:41;;;;;;;3.30;1.38;;;;;;;;;;4996572;28;20046;-81
2024/02/24 08:22:19;;;;;;;4.03;1.10;;;;;;;;;;4997435;28;20074;-83
2024/02/24 08:25:10;;;;;;;3.03;0.80;;;;;;;;;;5267115;23;20126;-81
2024/02/24 08:32:32;;;;;;;1.95;0.90;;;;;;;;;;4989463;28;20095;-82
2024/02/24 08:35:40;;;;;;;2.50;1.08;;;;;;;;;;4988784;28;20097;-82
2024/02/24 08:39:27;;;;;;;5.65;0.85;;;;;;;;;;4965389;28;20038;-83
2024/02/24 08:42:24;;;;;;;4.18;1.08;;;;;;;;;;4988368;28;20054;-82
2024/02/24 08:49:20;;;;;;;2.80;1.02;;;;;;;;;;4995220;28;20029;-83
2024/02/24 08:52:57;;;;;;;3.80;1.20;;;;;;;;;;4996668;28;20048;-82
2024/02/24 08:57:01;;;;;;;1.90;0.82;;;;;;;;;;4992080;28;20090;-82
2024/02/24 09:00:12;;;;;;;2.63;1.00;;;;;;;;;;4995600;28;20315;-83
2024/02/24 09:07:53;;;;;;;1.80;0.80;;;;;;;;;;4994123;28;20062;-82
2024/02/24 09:11:43;;;;;;;4.32;1.50;;;;;;;;;;4918312;29;20058;-82
2024/02/24 09:15:09;;;;;;;2.72;0.80;;;;;;;;;;4912110;29;20024;-82
2024/02/24 09:18:14;;;;;;;2.47;1.00;;;;;;;;;;4902545;29;20104;-82
2024/02/24 09:21:40;;;;;;;2.58;0.80;;;;;;;;;;4894177;29;20092;-82
2024/02/24 09:24:45;;;;;;;3.90;1.05;;;;;;;;;;4920565;29;20049;-82
2024/02/24 09:27:18;;;;;;;2.50;1.10;;;;;;;;;;4889644;29;20036;-82
2024/02/24 09:30:10;;;;;;;5.35;2.03;;;;;;;;;;4918650;29;20044;-82
2024/02/24 09:33:02;;;;;;;5.85;2.47;;;;;;;;;;4914734;29;20040;-82
2024/02/24 09:35:44;;;;;;;4.70;2.30;;;;;;;;;;5584546;23;20013;-82
2024/02/24 09:38:33;;;;;;;4.20;1.42;;;;;;;;;;4963414;29;20119;-82
2024/02/24 09:41:32;;;;;;;2.58;1.05;;;;;;;;;;4969311;29;20050;-83
2024/02/24 09:44:39;;;;;;;3.67;1.55;;;;;;;;;;4974306;28;20039;-82
2024/02/24 09:47:21;;;;;;;5.63;1.27;;;;;;;;;;4947798;29;20043;-82
2024/02/24 09:51:04;;;;;;;3.97;1.05;;;;;;;;;;4975195;29;20537;-82
2024/02/24 09:54:29;;;;;;;4.03;1.02;;;;;;;;;;4975001;28;20093;-83
2024/02/24 09:57:43;;;;;;;3.53;1.13;;;;;;;;;;4952022;29;20100;-81
2024/02/24 10:00:45;;;;;;;4.18;1.08;;;;;;;;;;4964704;29;20027;-81
2024/02/24 10:03:58;;;;;;;2.47;1.15;;;;;;;;;;4958514;29;20042;-82
2024/02/24 10:06:34;;;;;;;1.77;0.80;;;;;;;;;;4926061;29;20146;-82
2024/02/24 10:09:33;;;;;;;2.33;0.90;;;;;;;;;;4957719;29;20030;-82
2024/02/24 10:12:43;;;;;;;2.97;1.13;;;;;;;;;;4972583;29;20051;-81
2024/02/24 10:15:50;;;;;;;3.97;1.08;;;;;;;;;;4957141;29;20066;-82
2024/02/24 10:18:42;;;;;;;4.18;1.20;;;;;;;;;;4973933;29;20039;-82
2024/02/24 10:22:10;;;;;;;3.15;1.15;;;;;;;;;;4972888;29;20048;-83
2024/02/24 10:25:05;;;;;;;4.32;1.10;;;;;;;;;;4975215;29;20066;-82
2024/02/24 10:28:07;;;;;;;6.13;1.13;;;;;;;;;;4973471;28;20032;-82
2024/02/24 10:31:05;;;;;;;4.10;1.10;;;;;;;;;;4957560;29;20115;-82
2024/02/24 10:34:33;;;;;;;5.55;1.00;;;;;;;;;;4973509;29;20027;-82
2024/02/24 10:37:50;;;;;;;7.75;1.13;;;;;;;;;;4972737;29;20063;-82
2024/02/24 10:41:19;;;;;;;3.58;0.93;;;;;;;;;;4974637;29;20122;-82
2024/02/24 10:48:09;;;;;;;2.50;0.85;;;;;;;;;;4939850;29;20058;-83
2024/02/24 10:51:46;;;;;;;3.25;0.90;;;;;;;;;;4955700;29;20039;-81
2024/02/24 10:55:03;;;;;;;2.67;0.90;;;;;;;;;;5274324;23;20112;-82
2024/02/24 10:58:07;;;;;;;3.22;0.93;;;;;;;;;;4965056;28;20023;-81
2024/02/24 11:01:29;;;;;;;4.78;1.42;;;;;;;;;;4970503;28;20050;-82
2024/02/24 11:05:16;;;;;;;4.73;1.83;;;;;;;;;;4908173;29;20052;-82
2024/02/24 11:09:10;;;;;;;5.03;2.50;;;;;;;;;;4886921;29;20051;-83
2024/02/24 11:13:00;;;;;;;4.95;1.67;;;;;;;;;;4863427;29;20045;-83
2024/02/24 11:16:43;;;;;;;3.43;1.10;;;;;;;;;;4862784;29;20014;-81
2024/02/24 11:20:19;;;;;;;3.40;0.90;;;;;;;;;;4863775;29;20777;-83
2024/02/24 11:24:13;;;;;;;1.55;0.70;;;;;;;;;;4856131;29;20073;-82
2024/02/24 11:27:40;;;;;;;2.00;0.93;;;;;;;;;;4867778;29;20053;-83
2024/02/24 11:31:10;;;;;;;2.63;0.80;;;;;;;;;;4810055;29;20040;-82
2024/02/24 11:34:32;;;;;;;2.78;0.70;;;;;;;;;;4809682;30;20044;-82
2024/02/24 11:38:12;;;;;;;1.38;0.63;;;;;;;;;;4804922;30;20047;-82
2024/02/24 11:41:45;;;;;;;2.15;0.95;;;;;;;;;;4811281;30;20065;-81
2024/02/24 11:45:15;;;;;;;2.47;0.80;;;;;;;;;;4810643;30;20046;-83
2024/02/24 11:48:06;;;;;;;2.92;0.98;;;;;;;;;;4835065;29;20050;-83
2024/02/24 11:50:43;;;;;;;1.00;0.60;;;;;;;;;;4852190;29;20089;-82
2024/02/24 11:57:14;;;;;;;1.63;0.80;;;;;;;;;;4939885;29;20044;-82
2024/02/24 12:01:04;;;;;;;1.83;0.73;;;;;;;;;;4940939;29;20020;-83
2024/02/24 12:29:56;;;;;;;1.35;0.40;;;;;;;;;;5996180;23;20021;-82
2024/02/24 12:32:45;;;;;;;2.60;0.80;;;;;;;;;;4971164;28;20042;-82
2024/02/24 12:35:25;;;;;;;3.15;0.70;;;;;;;;;;4998379;28;20041;-83
2024/02/24 12:38:36;;;;;;;2.40;1.00;;;;;;;;;;4995481;28;20552;-83
2024/02/24 12:45:49;;;;;;;;;;;;;;;;;;;;;
2024/02/24 12:49:18;;;;;;;1.42;0.80;;;;;;;;;;4997425;28;20049;-82
2024/02/24 12:52:19;;;;;;;2.13;0.95;;;;;;;;;;4984814;28;20082;-83
2024/02/24 12:55:30;;;;;;;0.95;0.43;;;;;;;;;;4979553;28;20034;-82
2024/02/24 12:58:09;;;;;;;2.72;0.50;;;;;;;;;;4982093;28;20029;-84
2024/02/24 13:00:47;;;;;;;2.08;0.88;;;;;;;;;;4995229;28;20018;-83
2024/02/24 13:04:27;;;;;;;2.50;0.90;;;;;;;;;;4921195;29;20052;-81
2024/02/24 13:08:11;;;;;;;4.97;0.77;;;;;;;;;;4920541;29;20028;-81
2024/02/24 13:12:02;;;;;;;;;;;;;;;;;;;;;
2024/02/24 13:21:56;;;;;;;1.38;0.63;;;;;;;;;;4993840;28;19914;-83
2024/02/24 13:36:55;;;;;;;1.30;0.50;;;;;;;;;;4937199;29;20032;-82
2024/02/24 13:40:26;;;;;;;1.42;0.70;;;;;;;;;;4900098;29;20056;-81
2024/02/24 13:47:44;;;;;;;0.90;0.50;;;;;;;;;;4938036;29;20052;-83
2024/02/24 13:50:29;;;;;;;1.90;0.70;;;;;;;;;;4913827;29;20489;-83
2024/02/24 13:53:31;;;;;;;1.65;0.70;;;;;;;;;;4918170;29;20048;-82
2024/02/24 13:57:22;;;;;;;2.22;0.95;;;;;;;;;;4924884;29;20072;-82
2024/02/24 14:01:16;;;;;;;2.10;0.75;;;;;;;;;;4935905;29;20017;-83
2024/02/24 14:05:14;;;;;;;1.60;0.88;;;;;;;;;;4937800;29;20028;-82
2024/02/24 14:09:06;;;;;;;4.07;1.15;;;;;;;;;;4911054;29;20038;-83
2024/02/24 14:12:18;;;;;;;5.18;1.13;;;;;;;;;;4905974;29;20028;-81
2024/02/24 14:15:38;;;;;;;1.88;0.93;;;;;;;;;;5229968;23;20047;-82
2024/02/24 14:26:19;;;;;;;;;;;;;;;;;;5067375;23;20058;-81
2024/02/24 14:37:15;;;;;;;2.85;0.60;;;;;;;;;;4886099;29;20176;-82
2024/02/24 14:53:50;;;;;;;3.58;0.70;;;;;;;;;;4970275;28;20058;-81
2024/02/24 14:57:50;;;;;;;1.38;0.60;;;;;;;;;;4959999;29;20007;-82
2024/02/24 15:01:04;;;;;;;0.93;0.50;;;;;;;;;;4979987;29;20016;-81
2024/02/24 15:08:41;;;;;;;1.27;0.60;;;;;;;;;;4979523;28;20031;-82
2024/02/24 15:12:34;;;;;;;0.70;0.45;;;;;;;;;;4970195;29;20034;-81
2024/02/24 15:16:10;;;;;;;1.20;0.47;;;;;;;;;;4972480;29;20032;-82
2024/02/24 15:19:27;;;;;;;0.65;0.60;;;;;;;;;;4968787;29;20023;-82
2024/02/24 15:30:08;;;;;;;3.65;0.93;;;;;;;;;;4931374;29;19895;-82
2024/02/24 15:43:02;;;;;;;1.00;0.40;;;;;;;;;;4990806;28;20039;-81
2024/02/24 15:45:53;;;;;;;1.17;0.50;;;;;;;;;;4945515;29;20042;-83
2024/02/24 15:48:59;;;;;;;2.45;0.80;;;;;;;;;;4954580;29;20027;-82
2024/02/24 15:51:44;;;;;;;4.15;1.77;;;;;;;;;;4884728;29;20040;-82
2024/02/24 15:55:23;;;;;;;;;;;;;;;;;;;;;
2024/02/24 16:05:59;;;;;;;;;;;;;;;;;;4957328;29;20040;-82
2024/02/24 16:09:35;;;;;;;2.50;1.08;;;;;;;;;;4959371;29;19894;-83
2024/02/24 16:12:27;;;;;;;4.47;1.83;;;;;;;;;;4931385;29;20036;-82
2024/02/24 16:15:44;;;;;;;4.15;1.25;;;;;;;;;;4944283;29;20039;-82
2024/02/24 16:19:15;;;;;;;5.60;1.30;;;;;;;;;;4976810;29;20050;-82
2024/02/24 16:23:02;;;;;;;2.67;1.08;;;;;;;;;;4976157;29;20070;-82
2024/02/24 16:26:31;;;;;;;5.07;2.00;;;;;;;;;;5621226;23;20145;-83
2024/02/24 16:29:41;;;;;;;7.97;1.40;;;;;;;;;;4996147;28;20039;-83
2024/02/24 16:32:57;;;;;;;4.05;1.90;;;;;;;;;;4966979;28;20045;-84
2024/02/24 16:36:31;;;;;;;2.83;1.13;;;;;;;;;;4946830;29;20039;-82
2024/02/24 16:39:44;;;;;;;5.38;2.13;;;;;;;;;;4977921;29;20028;-82
2024/02/24 16:42:47;;;;;;;5.30;2.00;;;;;;;;;;4953745;29;20118;-82
2024/02/24 16:45:58;;;;;;;5.68;1.85;;;;;;;;;;4976867;28;20027;-82
2024/02/24 16:48:45;;;;;;;6.40;1.50;;;;;;;;;;4961241;29;20040;-83
2024/02/24 16:52:02;;;;;;;2.65;1.38;;;;;;;;;;4970651;29;20040;-82
2024/02/24 16:54:52;;;;;;;3.70;1.65;;;;;;;;;;4936909;29;20099;-83
2024/02/24 16:57:59;;;;;;;4.45;1.77;;;;;;;;;;4979010;29;20034;-81
2024/02/24 17:01:05;;;;;;;4.75;1.90;;;;;;;;;;4964534;28;20036;-82
2024/02/24 17:04:25;;;;;;;5.43;1.70;;;;;;;;;;4976075;28;20019;-82
2024/02/24 17:07:20;;;;;;;5.05;2.30;;;;;;;;;;4976872;29;20019;-82
2024/02/24 17:10:42;;;;;;;4.72;1.90;;;;;;;;;;4978031;28;20035;-82
2024/02/24 17:14:06;;;;;;;4.63;2.13;;;;;;;;;;4968470;28;20047;-81
2024/02/24 17:17:15;;;;;;;4.10;1.70;;;;;;;;;;4946584;29;20046;-82
2024/02/24 17:20:07;;;;;;;2.30;1.00;;;;;;;;;;4915910;29;20059;-82
2024/02/24 17:24:03;;;;;;;2.97;1.33;;;;;;;;;;4978594;28;20046;-81
2024/02/24 17:28:06;;;;;;;4.50;1.80;;;;;;;;;;4864773;29;20079;-82
2024/02/24 17:32:04;;;;;;;4.35;1.40;;;;;;;;;;4912882;29;20048;-82
2024/02/24 17:35:18;;;;;;;5.63;1.98;;;;;;;;;;4896804;29;20067;-83
2024/02/24 17:38:27;;;;;;;4.00;1.47;;;;;;;;;;4919292;29;20092;-82
2024/02/24 17:41:51;;;;;;;11.57;2.53;;;;;;;;;;4920560;29;20032;-83
2024/02/24 17:45:17;;;;;;;3.85;1.80;;;;;;;;;;4867980;29;20055;-84
2024/02/24 17:48:22;;;;;;;5.75;1.98;;;;;;;;;;4918151;29;20072;-82
2024/02/24 17:50:58;;;;;;;5.35;2.20;;;;;;;;;;4888293;29;20040;-82
2024/02/24 18:06:45;;;;;;;8.50;3.50;;;;;;;;;;4955793;28;20051;-82
2024/02/24 18:10:01;;;;;;;10.80;3.78;;;;;;;;;;4907805;29;20016;-83
2024/02/24 18:12:49;;;;;;;7.22;2.75;;;;;;;;;;4885616;29;20048;-83
2024/02/24 18:15:31;;;;;;;5.00;2.75;;;;;;;;;;4916872;29;20024;-83
2024/02/24 18:18:23;;;;;;;4.10;1.65;;;;;;;;;;4885625;29;20053;-83
2024/02/24 18:21:27;;;;;;;4.25;1.63;;;;;;;;;;4904264;29;20107;-83
2024/02/24 18:30:34;;;;;;;4.57;1.65;;;;;;;;;;5040897;23;20085;-82
2024/02/24 18:44:08;;;;;;;6.30;2.13;;;;;;;;;;4985270;28;20038;-81
2024/02/24 18:47:13;;;;;;;4.75;2.10;;;;;;;;;;4972736;28;20038;-83
2024/02/24 18:50:13;;;;;;;4.07;1.67;;;;;;;;;;4999144;28;20520;-83
2024/02/24 18:56:28;;;;;;;6.32;1.98;;;;;;;;;;5610385;23;20100;-82
2024/02/24 19:00:10;;;;;;;3.80;1.42;;;;;;;;;;4998515;28;20082;-83
2024/02/24 19:02:49;;;;;;;2.57;1.50;;;;;;;;;;4984622;28;20062;-82
2024/02/24 19:06:24;;;;;;;3.25;1.40;;;;;;;;;;4974181;28;20031;-82
2024/02/24 19:24:50;;;;;;;3.42;1.40;;;;;;;;;;5461218;23;20055;-83
2024/02/24 19:35:44;;;;;;;4.53;1.45;;;;;;;;;;4989317;28;20043;-84
2024/02/24 19:39:08;;;;;;;4.70;1.80;;;;;;;;;;4952547;28;20039;-83
2024/02/24 19:48:29;;;;;;;6.50;1.42;;;;;;;;;;5175037;23;20114;-83
2024/02/24 19:52:14;;;;;;;3.28;1.30;;;;;;;;;;4961454;28;20087;-83
2024/02/24 19:56:21;;;;;;;3.53;1.40;;;;;;;;;;4941803;29;20043;-84
2024/02/24 19:59:43;;;;;;;2.22;0.90;;;;;;;;;;4942459;29;20087;-83
2024/02/24 20:02:52;;;;;;;3.30;1.10;;;;;;;;;;4948119;29;20040;-84
2024/02/24 20:08:47;;;;;;;;;;;;;;;;;;;;;
2024/02/24 20:11:21;;;;;;;2.97;1.23;;;;;;;;;;4998644;28;20023;-83
2024/02/24 20:14:17;;;;;;;5.25;1.30;;;;;;;;;;4982507;28;20026;-82
2024/02/24 20:17:16;;;;;;;2.83;1.10;;;;;;;;;;5082103;23;20063;-83
2024/02/24 20:20:19;;;;;;;5.93;1.80;;;;;;;;;;4999499;28;20022;-82
2024/02/24 20:23:27;;;;;;;4.13;1.90;;;;;;;;;;4999982;28;20051;-83
2024/02/24 20:26:14;;;;;;;4.45;1.48;;;;;;;;;;4961898;29;20031;-82
2024/02/24 20:29:12;;;;;;;3.83;1.38;;;;;;;;;;4968636;29;20039;-83
2024/02/24 20:31:54;;;;;;;4.43;1.67;;;;;;;;;;4961604;29;20046;-82
2024/02/24 20:34:42;;;;;;;;;;;;;;;;;;;;;
2024/02/24 20:37:17;;;;;;;8.25;2.90;;;;;;;;;;4978481;29;20054;-82
2024/02/24 20:39:59;;;;;;;4.93;1.77;;;;;;;;;;4977935;29;20034;-83
2024/02/24 20:42:56;;;;;;;4.28;1.77;;;;;;;;;;4955205;28;20037;-81
2024/02/24 20:45:41;;;;;;;5.63;1.55;;;;;;;;;;4964478;28;20015;-82
2024/02/24 20:48:13;;;;;;;6.07;1.95;;;;;;;;;;4962044;29;20031;-83
2024/02/24 20:51:43;;;;;;;5.53;1.70;;;;;;;;;;4966676;28;20022;-83
2024/02/24 20:55:03;;;;;;;4.57;1.50;;;;;;;;;;4977715;28;20019;-81
2024/02/24 20:58:10;;;;;;;3.35;1.50;;;;;;;;;;4960721;29;20042;-82
2024/02/24 21:01:49;;;;;;;4.55;1.60;;;;;;;;;;4959357;29;20045;-82
2024/02/24 21:05:11;;;;;;;6.15;1.98;;;;;;;;;;4978971;28;20067;-82
2024/02/24 21:12:17;;;;;;;5.93;1.83;;;;;;;;;;4933312;29;20095;-83
2024/02/24 21:14:50;;;;;;;3.30;1.58;;;;;;;;;;4920433;29;20036;-81
2024/02/24 21:17:23;;;;;;;6.88;2.25;;;;;;;;;;4936313;29;20048;-82
2024/02/24 21:20:03;;;;;;;4.53;1.70;;;;;;;;;;4921024;29;20051;-82
2024/02/24 21:22:32;;;;;;;4.03;2.05;;;;;;;;;;4922476;29;20040;-82
2024/02/24 21:25:05;;;;;;;3.95;1.63;;;;;;;;;;4938129;29;20055;-83
2024/02/24 21:27:37;;;;;;;3.95;1.67;;;;;;;;;;4920924;29;20036;-81
2024/02/24 21:30:25;;;;;;;4.05;1.70;;;;;;;;;;4930847;29;20065;-83
2024/02/24 21:33:16;;;;;;;4.68;1.52;;;;;;;;;;4923485;29;20104;-82